Time;durP1;ratioP1;P1;durP2;ratioP2;P2;SDS_P1;SDS_P2;PMS_P1;PMS_P2;Temp;Humidity;BMP_temperature;BMP_pressure;BME280_temperature;BME280_humidity;BME280_pressure;Samples;Min_cycle;Max_cycle;Signal;HPM_P1;HPM_P2
2022/09/22 00:01:20;;;;;;;5.25;2.55;;;8.00;99.90;;;;;;5052046;28;20051;-71
2022/09/22 00:03:49;;;;;;;6.55;2.70;;;8.10;99.90;;;;;;5084156;28;20071;-72
2022/09/22 00:06:24;;;;;;;5.88;2.53;;;8.10;99.90;;;;;;5074186;28;20052;-72
2022/09/22 00:08:53;;;;;;;3.30;2.55;;;8.00;99.90;;;;;;5087702;28;20052;-71
2022/09/22 00:11:41;;;;;;;4.30;2.35;;;7.90;99.90;;;;;;5088140;28;20044;-72
2022/09/22 00:14:11;;;;;;;4.85;2.40;;;7.80;99.90;;;;;;5096588;28;20040;-71
2022/09/22 00:16:41;;;;;;;5.03;2.72;;;7.80;99.90;;;;;;5106464;28;20522;-71
2022/09/22 00:19:13;;;;;;;4.75;2.70;;;7.60;99.90;;;;;;5086313;28;20086;-71
2022/09/22 00:21:39;;;;;;;3.25;2.35;;;7.50;99.90;;;;;;5088299;28;20127;-71
2022/09/22 00:24:08;;;;;;;4.85;2.67;;;7.40;99.90;;;;;;5089131;28;20044;-71
2022/09/22 00:26:36;;;;;;;4.75;3.22;;;7.50;99.90;;;;;;5088359;28;20044;-72
2022/09/22 00:29:02;;;;;;;3.85;2.80;;;7.50;99.90;;;;;;5105673;28;20099;-71
2022/09/22 00:31:28;;;;;;;3.85;3.00;;;7.50;99.90;;;;;;5088009;28;20051;-72
2022/09/22 00:33:55;;;;;;;6.15;2.70;;;7.60;99.90;;;;;;5087866;28;20044;-72
2022/09/22 00:36:24;;;;;;;5.72;2.55;;;7.60;99.90;;;;;;5087050;28;20048;-72
2022/09/22 00:38:50;;;;;;;5.30;2.28;;;7.60;99.90;;;;;;5084094;28;20305;-71
2022/09/22 00:41:19;;;;;;;4.78;2.30;;;7.60;99.90;;;;;;5087421;28;20044;-72
2022/09/22 00:44:09;;;;;;;5.22;2.13;;;7.60;99.90;;;;;;5102115;28;20040;-71
2022/09/22 00:46:38;;;;;;;4.05;2.20;;;7.40;99.90;;;;;;5105715;28;20047;-71
2022/09/22 00:49:06;;;;;;;2.58;1.98;;;7.20;99.90;;;;;;5105565;28;20036;-72
2022/09/22 00:51:36;;;;;;;3.42;2.25;;;7.10;99.90;;;;;;5087244;28;20094;-72
2022/09/22 00:54:05;;;;;;;2.85;2.00;;;7.10;99.90;;;;;;5105612;28;20054;-71
2022/09/22 00:56:46;;;;;;;2.83;2.17;;;7.00;99.90;;;;;;5086677;28;20040;-71
2022/09/22 00:59:18;;;;;;;3.95;1.88;;;7.00;99.90;;;;;;5087229;28;20322;-71
2022/09/22 01:01:44;;;;;;;2.42;1.90;;;6.90;99.90;;;;;;5088707;28;20070;-72
2022/09/22 01:04:11;;;;;;;4.72;2.03;;;6.80;99.90;;;;;;5109037;28;20044;-71
2022/09/22 01:06:38;;;;;;;4.10;2.42;;;6.70;99.90;;;;;;5088538;28;20052;-72
2022/09/22 01:09:04;;;;;;;3.63;2.40;;;6.80;99.90;;;;;;5087584;28;20083;-71
2022/09/22 01:11:30;;;;;;;5.43;2.15;;;6.70;99.90;;;;;;5087508;28;20048;-71
2022/09/22 01:14:14;;;;;;;4.30;2.10;;;6.50;99.90;;;;;;5086411;28;20051;-71
2022/09/22 01:17:02;;;;;;;3.00;2.35;;;6.50;99.90;;;;;;5086738;28;20079;-71
2022/09/22 01:19:36;;;;;;;7.65;3.65;;;6.50;99.90;;;;;;5086981;28;20622;-71
2022/09/22 01:22:40;;;;;;;4.32;2.22;;;6.50;99.90;;;;;;5104300;28;20060;-72
2022/09/22 01:25:34;;;;;;;3.95;2.58;;;6.50;99.90;;;;;;5081147;28;20048;-71
2022/09/22 01:28:15;;;;;;;4.20;2.25;;;6.60;99.90;;;;;;5086856;28;20284;-72
2022/09/22 01:30:47;;;;;;;3.00;1.90;;;6.60;99.90;;;;;;5078896;28;20063;-71
2022/09/22 01:33:28;;;;;;;2.53;2.05;;;6.70;99.90;;;;;;5071374;28;20044;-72
2022/09/22 01:36:19;;;;;;;2.38;1.90;;;6.70;99.90;;;;;;5106270;28;20040;-71
2022/09/22 01:38:52;;;;;;;3.28;2.08;;;6.70;99.90;;;;;;5087016;28;20048;-72
2022/09/22 01:41:50;;;;;;;2.30;1.92;;;6.70;99.90;;;;;;5086975;28;20040;-71
2022/09/22 01:44:30;;;;;;;4.40;2.00;;;6.80;99.90;;;;;;5086598;28;20059;-72
2022/09/22 01:47:09;;;;;;;2.35;1.90;;;6.70;99.90;;;;;;5086903;28;20048;-72
2022/09/22 01:49:40;;;;;;;3.23;1.60;;;6.70;99.90;;;;;;5105080;28;20056;-71
2022/09/22 01:52:11;;;;;;;3.50;1.80;;;6.70;99.90;;;;;;5087693;28;20051;-71
2022/09/22 01:54:44;;;;;;;3.78;2.00;;;6.60;99.90;;;;;;5105884;28;20048;-71
2022/09/22 01:57:13;;;;;;;3.72;1.90;;;6.70;99.90;;;;;;5085974;28;20048;-72
2022/09/22 01:59:41;;;;;;;2.33;1.60;;;6.70;99.90;;;;;;5087384;28;20099;-71
2022/09/22 02:02:15;;;;;;;4.32;1.88;;;6.70;99.90;;;;;;5087029;28;20043;-71
2022/09/22 02:04:47;;;;;;;3.28;1.80;;;6.60;99.90;;;;;;5087087;28;20044;-72
2022/09/22 02:07:24;;;;;;;2.47;1.50;;;6.60;99.90;;;;;;5104487;28;20052;-71
2022/09/22 02:09:50;;;;;;;5.32;2.13;;;6.50;99.90;;;;;;5085499;28;20062;-72
2022/09/22 02:12:17;;;;;;;3.42;1.90;;;6.40;99.90;;;;;;5086104;28;20044;-72
2022/09/22 02:14:44;;;;;;;3.72;1.77;;;6.40;99.90;;;;;;5086200;28;20040;-71
2022/09/22 02:17:12;;;;;;;3.47;1.73;;;6.50;99.90;;;;;;5070471;28;20036;-72
2022/09/22 02:19:40;;;;;;;3.60;1.60;;;6.50;99.90;;;;;;5086995;28;20484;-71
2022/09/22 02:22:07;;;;;;;2.45;1.45;;;6.40;99.90;;;;;;5085634;28;20059;-71
2022/09/22 02:24:42;;;;;;;2.50;1.70;;;6.50;99.90;;;;;;5086734;28;20044;-71
2022/09/22 02:27:34;;;;;;;3.60;1.60;;;6.40;99.90;;;;;;5083179;28;20484;-71
2022/09/22 02:30:05;;;;;;;2.90;1.73;;;6.40;99.90;;;;;;5087232;28;20047;-71
2022/09/22 02:32:33;;;;;;;2.20;1.23;;;6.40;99.90;;;;;;5105463;28;20078;-71
2022/09/22 02:35:00;;;;;;;1.58;1.33;;;6.30;99.90;;;;;;5086198;28;20051;-72
2022/09/22 02:37:38;;;;;;;2.25;1.33;;;6.30;99.90;;;;;;5085615;28;20051;-71
2022/09/22 02:40:30;;;;;;;1.80;1.58;;;6.30;99.90;;;;;;5068783;28;20151;-71
2022/09/22 02:43:03;;;;;;;4.60;1.63;;;6.30;99.90;;;;;;5085459;28;20066;-71
2022/09/22 02:45:36;;;;;;;2.80;1.70;;;6.20;99.90;;;;;;5085858;28;20051;-71
2022/09/22 02:48:17;;;;;;;3.78;1.80;;;6.20;99.90;;;;;;5102876;28;20051;-71
2022/09/22 02:50:43;;;;;;;2.33;1.60;;;6.20;99.90;;;;;;5084813;28;20048;-71
2022/09/22 02:53:12;;;;;;;2.22;1.33;;;6.30;99.90;;;;;;5067821;28;20106;-71
2022/09/22 02:55:39;;;;;;;3.15;1.65;;;6.30;99.90;;;;;;5082098;28;20120;-71
2022/09/22 02:58:05;;;;;;;2.78;1.77;;;6.20;99.90;;;;;;5103392;28;20514;-72
2022/09/22 03:00:31;;;;;;;6.68;1.60;;;6.20;99.90;;;;;;5083562;28;20044;-72
2022/09/22 03:02:57;;;;;;;2.35;1.45;;;6.20;99.90;;;;;;5084893;28;20042;-71
2022/09/22 03:05:23;;;;;;;1.42;1.20;;;6.20;99.90;;;;;;5078592;28;20076;-71
2022/09/22 03:07:49;;;;;;;1.98;1.35;;;6.10;99.90;;;;;;5085368;28;20110;-71
2022/09/22 03:10:15;;;;;;;2.65;1.10;;;6.10;99.90;;;;;;5103207;28;20099;-71
2022/09/22 03:12:44;;;;;;;2.28;1.25;;;6.10;99.90;;;;;;5084716;28;20123;-72
2022/09/22 03:15:11;;;;;;;2.85;1.30;;;6.10;99.90;;;;;;5067818;28;20434;-71
2022/09/22 03:17:37;;;;;;;4.28;2.38;;;6.00;99.90;;;;;;5085855;28;20122;-72
2022/09/22 03:20:05;;;;;;;1.60;1.30;;;5.90;99.90;;;;;;5085173;28;20052;-71
2022/09/22 03:22:31;;;;;;;4.97;1.38;;;5.90;99.90;;;;;;5081925;28;20070;-71
2022/09/22 03:24:57;;;;;;;2.05;1.45;;;5.90;99.90;;;;;;5087066;28;20040;-71
2022/09/22 03:27:23;;;;;;;3.50;1.60;;;5.90;99.90;;;;;;5089173;28;20040;-71
2022/09/22 03:29:49;;;;;;;2.78;1.52;;;5.80;99.90;;;;;;5090019;28;20108;-71
2022/09/22 03:32:14;;;;;;;7.63;1.58;;;5.80;99.90;;;;;;5088971;28;20044;-71
2022/09/22 03:34:40;;;;;;;2.13;1.20;;;5.90;99.90;;;;;;5072199;28;20042;-71
2022/09/22 03:37:06;;;;;;;1.83;1.23;;;5.90;99.90;;;;;;5087966;28;20044;-71
2022/09/22 03:39:31;;;;;;;2.17;1.50;;;6.00;99.90;;;;;;5101599;28;20684;-71
2022/09/22 03:41:57;;;;;;;2.03;1.33;;;6.00;99.90;;;;;;5088830;28;20048;-71
2022/09/22 03:44:25;;;;;;;1.40;1.20;;;6.00;99.90;;;;;;5089860;28;20082;-71
2022/09/22 03:46:51;;;;;;;1.17;1.00;;;6.00;99.90;;;;;;5088477;28;20105;-71
2022/09/22 03:49:17;;;;;;;1.75;1.25;;;5.90;99.90;;;;;;5088353;28;20079;-71
2022/09/22 03:51:42;;;;;;;2.95;1.58;;;5.80;99.90;;;;;;5088342;28;20051;-71
2022/09/22 03:54:08;;;;;;;2.10;1.25;;;5.80;99.90;;;;;;5088662;28;20070;-71
2022/09/22 03:56:34;;;;;;;2.05;1.40;;;5.80;99.90;;;;;;5087663;28;20115;-71
2022/09/22 03:58:59;;;;;;;2.17;1.40;;;5.80;99.90;;;;;;5107902;28;20052;-71
2022/09/22 04:01:25;;;;;;;3.65;1.90;;;5.80;99.90;;;;;;5088135;28;20067;-71
2022/09/22 04:03:51;;;;;;;2.60;1.90;;;5.80;99.90;;;;;;5088467;28;20062;-71
2022/09/22 04:06:17;;;;;;;4.93;1.77;;;5.80;99.90;;;;;;5106934;28;20052;-71
2022/09/22 04:08:43;;;;;;;3.25;1.90;;;5.70;99.90;;;;;;5089318;28;20427;-71
2022/09/22 04:11:08;;;;;;;2.13;1.58;;;5.80;99.90;;;;;;5089622;28;20099;-71
2022/09/22 04:13:34;;;;;;;1.52;1.33;;;5.80;99.90;;;;;;5084117;28;20050;-71
2022/09/22 04:16:01;;;;;;;2.28;1.40;;;5.80;99.90;;;;;;5089766;28;20040;-71
2022/09/22 04:18:27;;;;;;;3.35;1.50;;;5.80;99.90;;;;;;5088439;28;20559;-71
2022/09/22 04:20:57;;;;;;;2.38;1.27;;;5.80;99.90;;;;;;5088058;28;20093;-71
2022/09/22 04:23:24;;;;;;;1.70;1.17;;;5.80;99.90;;;;;;5087966;28;20052;-71
2022/09/22 04:25:50;;;;;;;5.32;1.60;;;5.70;99.90;;;;;;5104832;28;20051;-71
2022/09/22 04:28:15;;;;;;;2.67;1.60;;;5.70;99.90;;;;;;5087775;28;20039;-71
2022/09/22 04:30:42;;;;;;;3.85;1.35;;;5.70;99.90;;;;;;5087970;28;20056;-71
2022/09/22 04:33:09;;;;;;;3.05;1.40;;;5.70;99.90;;;;;;5087482;28;20052;-71
2022/09/22 04:35:36;;;;;;;2.40;1.20;;;5.80;99.90;;;;;;5071198;28;20036;-71
2022/09/22 04:38:02;;;;;;;1.60;1.42;;;5.90;99.90;;;;;;5087936;28;20052;-71
2022/09/22 04:40:28;;;;;;;3.78;1.40;;;5.80;99.90;;;;;;5087861;28;20075;-71
2022/09/22 04:42:54;;;;;;;2.33;1.50;;;5.70;99.90;;;;;;5087097;28;20104;-71
2022/09/22 04:45:20;;;;;;;3.92;1.80;;;5.70;99.90;;;;;;5087845;28;20059;-71
2022/09/22 04:47:47;;;;;;;2.13;1.48;;;5.70;99.90;;;;;;5088801;28;20042;-71
2022/09/22 04:50:14;;;;;;;3.10;1.45;;;5.70;99.90;;;;;;5087439;28;20043;-71
2022/09/22 04:52:47;;;;;;;1.63;1.10;;;5.60;99.90;;;;;;5085809;28;20042;-71
2022/09/22 04:55:13;;;;;;;1.20;1.10;;;5.50;99.90;;;;;;5088235;28;20051;-71
2022/09/22 04:57:38;;;;;;;1.52;1.15;;;5.40;99.90;;;;;;5070008;28;20047;-71
2022/09/22 05:00:05;;;;;;;1.20;1.10;;;5.20;99.90;;;;;;5087442;28;20052;-71
2022/09/22 05:02:31;;;;;;;2.05;1.40;;;5.20;99.90;;;;;;5087273;28;20044;-71
2022/09/22 05:04:56;;;;;;;2.10;1.55;;;5.20;99.90;;;;;;5071224;28;20044;-69
2022/09/22 05:07:22;;;;;;;2.85;1.20;;;5.30;99.90;;;;;;5060531;28;20067;-71
2022/09/22 05:09:48;;;;;;;2.45;1.98;;;5.30;99.90;;;;;;5087352;28;20047;-72
2022/09/22 05:12:13;;;;;;;3.17;1.90;;;5.30;99.90;;;;;;5086928;28;20524;-71
2022/09/22 05:14:39;;;;;;;3.50;1.42;;;5.30;99.90;;;;;;5054324;28;20102;-71
2022/09/22 05:17:05;;;;;;;1.90;1.50;;;5.30;99.90;;;;;;5071661;28;20051;-71
2022/09/22 05:19:31;;;;;;;2.15;1.70;;;5.30;99.90;;;;;;5070481;28;20044;-71
2022/09/22 05:21:56;;;;;;;1.30;1.20;;;5.20;99.90;;;;;;5068885;28;20056;-72
2022/09/22 05:24:22;;;;;;;2.28;1.40;;;5.20;99.90;;;;;;5079420;28;20052;-70
2022/09/22 05:26:48;;;;;;;2.55;1.40;;;5.20;99.90;;;;;;5054467;28;20070;-70
2022/09/22 05:29:17;;;;;;;2.50;1.70;;;5.20;99.90;;;;;;5098240;28;20379;-71
2022/09/22 05:31:44;;;;;;;2.85;1.60;;;5.20;99.90;;;;;;5060278;28;20049;-72
2022/09/22 05:34:10;;;;;;;3.20;2.15;;;5.20;99.90;;;;;;5079847;28;20291;-71
2022/09/22 05:36:36;;;;;;;1.55;1.38;;;5.20;99.90;;;;;;5066287;28;20411;-71
2022/09/22 05:39:02;;;;;;;2.88;1.30;;;5.20;99.90;;;;;;5078154;28;20040;-72
2022/09/22 05:41:27;;;;;;;1.40;1.30;;;5.20;99.90;;;;;;5063702;28;20036;-69
2022/09/22 05:43:53;;;;;;;1.83;1.50;;;5.20;99.90;;;;;;5062111;28;20055;-70
2022/09/22 05:46:18;;;;;;;12.90;2.10;;;5.20;99.90;;;;;;5062228;28;20427;-71
2022/09/22 05:48:44;;;;;;;6.60;1.58;;;5.30;99.90;;;;;;5059080;28;20048;-72
2022/09/22 05:51:10;;;;;;;1.20;1.10;;;5.40;99.90;;;;;;5028922;28;20048;-71
2022/09/22 05:53:35;;;;;;;3.30;1.63;;;5.40;99.90;;;;;;5074882;28;20060;-72
2022/09/22 05:56:01;;;;;;;3.40;2.00;;;5.40;99.90;;;;;;5063043;28;20045;-71
2022/09/22 05:58:27;;;;;;;2.63;2.33;;;5.40;99.90;;;;;;5076992;28;20108;-71
2022/09/22 06:00:55;;;;;;;5.05;3.00;;;5.40;99.90;;;;;;5065376;28;20056;-71
2022/09/22 06:03:21;;;;;;;3.28;1.95;;;5.50;99.90;;;;;;5077092;28;20047;-71
2022/09/22 06:05:47;;;;;;;2.90;2.13;;;5.50;99.90;;;;;;5064680;28;20056;-73
2022/09/22 06:08:13;;;;;;;6.68;3.40;;;5.60;99.90;;;;;;5045706;28;20056;-72
2022/09/22 06:10:39;;;;;;;4.20;2.88;;;5.70;99.90;;;;;;5087909;28;20494;-70
2022/09/22 06:13:06;;;;;;;4.53;3.10;;;5.80;99.90;;;;;;5079196;28;20113;-68
2022/09/22 06:15:35;;;;;;;4.90;2.83;;;5.90;99.90;;;;;;5069618;28;20143;-66
2022/09/22 06:18:04;;;;;;;5.78;3.85;;;5.90;99.90;;;;;;5086223;28;20044;-66
2022/09/22 06:20:30;;;;;;;5.00;3.42;;;6.00;99.90;;;;;;5069410;28;20063;-66
2022/09/22 06:22:56;;;;;;;5.00;4.00;;;6.10;99.90;;;;;;5083359;28;20047;-66
2022/09/22 06:25:22;;;;;;;6.70;4.03;;;6.10;99.90;;;;;;5065802;28;20538;-66
2022/09/22 06:28:01;;;;;;;7.65;4.35;;;6.10;99.90;;;;;;5064440;28;20068;-66
2022/09/22 06:30:27;;;;;;;6.87;4.93;;;6.30;99.90;;;;;;5086760;28;20063;-66
2022/09/22 06:32:54;;;;;;;6.70;5.57;;;6.30;99.90;;;;;;5081157;28;20451;-66
2022/09/22 06:35:20;;;;;;;5.22;4.72;;;6.40;99.90;;;;;;5065395;28;20287;-72
2022/09/22 06:37:55;;;;;;;9.13;5.90;;;6.50;99.90;;;;;;5079147;28;20270;-74
2022/09/22 06:40:22;;;;;;;8.90;6.10;;;6.60;99.90;;;;;;5068070;28;20464;-72
2022/09/22 06:42:48;;;;;;;10.20;6.80;;;6.60;99.90;;;;;;5081054;28;20415;-73
2022/09/22 06:45:15;;;;;;;10.30;7.75;;;6.80;99.90;;;;;;5094245;28;20047;-73
2022/09/22 06:47:41;;;;;;;12.93;7.68;;;6.90;99.90;;;;;;5064267;28;20055;-72
2022/09/22 06:50:08;;;;;;;23.23;8.27;;;7.00;99.90;;;;;;5101288;28;20040;-71
2022/09/22 06:52:35;;;;;;;15.43;10.40;;;7.10;99.90;;;;;;5069385;28;20052;-72
2022/09/22 06:55:01;;;;;;;16.52;10.90;;;7.10;99.90;;;;;;5097861;28;20055;-71
2022/09/22 06:57:31;;;;;;;14.02;11.30;;;7.10;99.90;;;;;;5072974;28;20828;-72
2022/09/22 06:59:59;;;;;;;14.80;9.60;;;7.20;99.90;;;;;;5082005;28;20044;-71
2022/09/22 07:02:27;;;;;;;9.50;7.88;;;7.30;99.90;;;;;;5072284;28;20044;-71
2022/09/22 07:04:59;;;;;;;10.00;8.77;;;7.30;99.90;;;;;;5080782;28;20047;-71
2022/09/22 07:07:30;;;;;;;16.27;11.27;;;7.40;99.90;;;;;;5009885;28;20049;-71
2022/09/22 07:09:57;;;;;;;16.33;12.77;;;7.50;99.90;;;;;;5064088;28;20078;-71
2022/09/22 07:12:24;;;;;;;17.08;12.90;;;7.60;99.90;;;;;;5048549;28;20048;-71
2022/09/22 07:14:51;;;;;;;15.30;13.18;;;7.70;99.90;;;;;;5064816;28;20724;-71
2022/09/22 07:17:20;;;;;;;18.05;15.25;;;7.70;99.90;;;;;;5053507;28;20048;-71
2022/09/22 07:19:46;;;;;;;17.40;14.25;;;7.80;99.90;;;;;;5063748;28;20044;-71
2022/09/22 07:22:17;;;;;;;17.80;13.95;;;8.00;99.90;;;;;;5056121;28;20055;-72
2022/09/22 07:24:44;;;;;;;14.27;12.52;;;8.10;99.90;;;;;;5064563;28;20051;-72
2022/09/22 07:27:11;;;;;;;18.83;13.70;;;8.20;99.90;;;;;;5017818;28;20225;-71
2022/09/22 07:29:37;;;;;;;23.00;15.98;;;8.20;99.90;;;;;;5059781;28;20055;-71
2022/09/22 07:32:03;;;;;;;18.45;15.02;;;8.30;99.90;;;;;;5057040;28;20056;-71
2022/09/22 07:34:30;;;;;;;18.13;15.40;;;8.40;99.90;;;;;;5065943;28;20040;-71
2022/09/22 07:36:56;;;;;;;18.65;15.18;;;8.50;99.90;;;;;;5055484;28;20045;-71
2022/09/22 07:39:23;;;;;;;16.88;15.02;;;8.60;99.90;;;;;;5047796;28;20033;-71
2022/09/22 07:41:49;;;;;;;20.50;15.35;;;8.70;99.90;;;;;;5031199;28;20566;-71
2022/09/22 07:47:00;;;;;;;18.27;14.55;;;8.80;99.90;;;;;;5053189;28;20076;-71
2022/09/22 07:49:26;;;;;;;20.17;16.58;;;8.90;99.90;;;;;;5048702;28;20639;-71
2022/09/22 07:51:56;;;;;;;18.80;16.08;;;9.10;99.90;;;;;;5053460;28;20107;-73
2022/09/22 07:54:23;;;;;;;22.10;15.48;;;9.10;99.90;;;;;;5060499;28;20075;-73
2022/09/22 07:56:50;;;;;;;19.73;16.92;;;9.20;99.90;;;;;;5052045;28;20063;-73
2022/09/22 07:59:17;;;;;;;20.48;15.50;;;9.30;99.90;;;;;;5044831;28;20407;-72
2022/09/22 08:01:48;;;;;;;18.83;15.60;;;9.40;99.90;;;;;;5051484;28;20151;-74
2022/09/22 08:04:17;;;;;;;19.77;16.65;;;9.50;99.90;;;;;;5061573;28;20048;-73
2022/09/22 08:06:45;;;;;;;20.60;15.88;;;9.60;99.90;;;;;;5069258;28;20147;-72
2022/09/22 08:09:12;;;;;;;18.13;16.08;;;9.70;99.90;;;;;;5097696;28;20050;-72
2022/09/22 08:11:39;;;;;;;19.88;16.80;;;9.80;99.90;;;;;;5072435;28;20055;-72
2022/09/22 08:14:07;;;;;;;18.30;15.40;;;9.90;99.90;;;;;;5077784;28;20036;-72
2022/09/22 08:16:35;;;;;;;18.88;14.13;;;10.00;99.90;;;;;;5070422;28;20054;-74
2022/09/22 08:19:09;;;;;;;18.02;15.57;;;10.10;99.90;;;;;;5097329;28;20052;-71
2022/09/22 08:21:35;;;;;;;20.52;15.57;;;10.20;99.90;;;;;;5088633;28;20044;-71
2022/09/22 08:24:02;;;;;;;17.55;14.25;;;10.30;99.90;;;;;;5082155;28;20044;-71
2022/09/22 08:26:28;;;;;;;19.75;15.10;;;10.40;99.90;;;;;;5047158;28;20067;-70
2022/09/22 08:28:56;;;;;;;21.38;14.18;;;10.50;99.90;;;;;;5081148;28;20397;-68
2022/09/22 08:31:24;;;;;;;17.08;14.77;;;10.60;99.90;;;;;;5069981;28;20167;-70
2022/09/22 08:33:51;;;;;;;19.35;14.15;;;10.70;99.90;;;;;;5080882;28;20055;-71
2022/09/22 08:36:17;;;;;;;18.85;13.20;;;10.80;99.90;;;;;;5071711;28;20052;-69
2022/09/22 08:38:48;;;;;;;20.70;11.60;;;10.90;99.90;;;;;;5083386;28;20415;-70
2022/09/22 08:41:43;;;;;;;17.88;11.52;;;11.00;99.90;;;;;;5035106;28;20048;-70
2022/09/22 08:44:09;;;;;;;15.65;11.20;;;11.10;99.90;;;;;;5063991;28;20106;-70
2022/09/22 08:46:43;;;;;;;17.05;12.23;;;11.20;99.90;;;;;;5067678;28;20095;-70
2022/09/22 08:52:39;;;;;;;18.00;12.68;;;11.50;99.90;;;;;;5066706;28;20044;-69
2022/09/22 08:55:12;;;;;;;16.52;12.32;;;11.60;99.90;;;;;;5082471;28;20044;-70
2022/09/22 08:57:55;;;;;;;10.68;7.97;;;11.70;99.90;;;;;;5072824;28;20540;-70
2022/09/22 09:00:23;;;;;;;13.73;7.20;;;11.90;99.90;;;;;;5082597;28;20558;-70
2022/09/22 09:03:13;;;;;;;10.77;7.20;;;12.00;99.90;;;;;;5072487;28;20063;-70
2022/09/22 09:06:03;;;;;;;11.70;6.90;;;12.10;99.90;;;;;;5083115;28;20099;-70
2022/09/22 09:08:52;;;;;;;10.02;7.35;;;12.20;99.90;;;;;;5043965;28;20794;-70
2022/09/22 09:11:47;;;;;;;7.95;5.95;;;12.30;99.90;;;;;;5090530;28;20067;-70
2022/09/22 09:14:25;;;;;;;13.32;7.90;;;12.50;99.90;;;;;;5083904;28;20128;-70
2022/09/22 09:16:53;;;;;;;12.63;7.43;;;12.60;99.90;;;;;;5069204;28;20052;-70
2022/09/22 09:19:30;;;;;;;11.82;6.40;;;12.70;99.90;;;;;;5080953;28;20039;-69
2022/09/22 09:22:00;;;;;;;10.93;6.38;;;12.70;99.90;;;;;;5070443;28;20055;-70
2022/09/22 09:24:30;;;;;;;;;;;12.80;99.90;;;;;;5078650;28;20039;-70
2022/09/22 09:27:17;;;;;;;12.25;6.38;;;12.90;99.90;;;;;;5073778;28;19923;-70
2022/09/22 09:30:01;;;;;;;7.88;4.63;;;12.90;99.90;;;;;;5080239;28;20052;-70
2022/09/22 09:32:59;;;;;;;5.43;4.40;;;13.10;99.90;;;;;;5061921;28;20052;-71
2022/09/22 09:35:46;;;;;;;7.03;5.28;;;13.20;99.90;;;;;;5070021;28;20050;-70
2022/09/22 09:38:16;;;;;;;8.05;5.00;;;13.30;99.90;;;;;;5069827;28;20089;-70
2022/09/22 09:40:53;;;;;;;10.88;4.65;;;13.40;99.90;;;;;;5081498;28;20040;-70
2022/09/22 09:43:24;;;;;;;7.25;4.25;;;13.50;99.90;;;;;;5066844;28;20071;-70
2022/09/22 09:46:11;;;;;;;8.32;4.05;;;13.60;99.90;;;;;;5096894;28;20348;-70
2022/09/22 09:49:01;;;;;;;7.20;4.45;;;13.80;99.90;;;;;;5070151;28;20055;-70
2022/09/22 09:51:28;;;;;;;6.25;2.92;;;13.90;99.90;;;;;;5085639;28;20138;-68
2022/09/22 09:53:55;;;;;;;6.97;3.85;;;14.00;99.90;;;;;;5079300;28;20059;-70
2022/09/22 09:56:29;;;;;;;6.57;3.42;;;14.00;99.90;;;;;;5070574;28;20048;-70
2022/09/22 10:01:49;;;;;;;7.30;3.53;;;14.20;99.90;;;;;;5069325;28;20098;-69
2022/09/22 10:04:34;;;;;;;8.95;4.20;;;14.30;99.90;;;;;;5095081;28;20109;-69
2022/09/22 10:07:43;;;;;;;6.75;3.08;;;14.40;99.90;;;;;;5068724;28;20131;-69
2022/09/22 10:10:27;;;;;;;5.33;3.60;;;14.40;99.90;;;;;;4998857;28;20057;-69
2022/09/22 10:13:04;;;;;;;8.45;4.22;;;14.50;99.90;;;;;;4989398;28;20308;-70
2022/09/22 10:15:32;;;;;;;5.60;3.85;;;14.60;99.90;;;;;;5013470;28;20058;-69
2022/09/22 10:17:57;;;;;;;6.97;4.10;;;14.70;99.90;;;;;;5003932;28;20073;-69
2022/09/22 10:20:26;;;;;;;6.72;4.07;;;14.70;99.90;;;;;;4996225;28;20061;-69
2022/09/22 10:22:53;;;;;;;5.57;3.63;;;14.80;99.90;;;;;;4989378;28;20066;-69
2022/09/22 10:25:26;;;;;;;6.28;2.78;;;14.90;99.90;;;;;;5001361;28;20075;-69
2022/09/22 10:28:03;;;;;;;7.45;3.30;;;14.90;99.90;;;;;;5005704;28;20054;-70
2022/09/22 10:30:36;;;;;;;6.25;3.25;;;14.90;99.90;;;;;;4999614;28;20129;-69
2022/09/22 10:33:10;;;;;;;7.10;3.10;;;14.90;99.90;;;;;;4989823;28;20105;-69
2022/09/22 10:35:36;;;;;;;8.00;2.40;;;14.90;99.90;;;;;;4999202;28;20064;-70
2022/09/22 10:38:11;;;;;;;6.45;3.10;;;15.00;99.90;;;;;;4965519;28;20054;-69
2022/09/22 10:40:39;;;;;;;6.55;2.70;;;15.10;99.90;;;;;;5013504;28;20053;-69
2022/09/22 10:43:25;;;;;;;6.03;3.30;;;15.20;99.90;;;;;;4981011;28;20157;-69
2022/09/22 10:46:27;;;;;;;6.45;3.33;;;15.20;99.90;;;;;;5041807;28;20062;-69
2022/09/22 10:49:40;;;;;;;4.80;2.75;;;15.30;99.90;;;;;;5020958;28;20127;-73
2022/09/22 10:52:25;;;;;;;4.53;3.03;;;15.40;99.90;;;;;;5065604;28;20056;-72
2022/09/22 10:55:17;;;;;;;7.45;2.83;;;15.50;99.90;;;;;;5092115;28;20162;-72
2022/09/22 10:57:58;;;;;;;6.10;3.20;;;15.70;99.90;;;;;;5072377;28;20048;-72
2022/09/22 11:00:26;;;;;;;6.13;3.20;;;15.80;99.90;;;;;;5080814;28;20048;-72
2022/09/22 11:03:09;;;;;;;5.18;2.70;;;15.80;99.90;;;;;;5086977;28;20044;-72
2022/09/22 11:12:56;;;;;;;5.88;3.30;;;16.00;99.90;;;;;;5067547;28;20062;-72
2022/09/22 11:15:54;;;;;;;6.40;3.42;;;16.00;99.90;;;;;;5016190;28;20038;-72
2022/09/22 11:18:54;;;;;;;4.93;2.85;;;16.00;99.90;;;;;;5019949;28;20053;-73
2022/09/22 11:21:45;;;;;;;5.38;2.97;;;16.10;99.90;;;;;;5011728;28;20128;-73
2022/09/22 11:24:28;;;;;;;12.07;5.43;;;16.30;99.90;;;;;;5010967;28;20049;-72
2022/09/22 11:26:57;;;;;;;7.47;3.83;;;16.40;99.90;;;;;;5009249;28;20048;-72
2022/09/22 11:30:07;;;;;;;7.50;4.10;;;16.40;99.90;;;;;;5016512;28;20049;-73
2022/09/22 11:32:53;;;;;;;5.57;3.70;;;16.40;99.90;;;;;;5007197;28;20084;-73
2022/09/22 11:35:42;;;;;;;9.13;4.05;;;16.30;99.90;;;;;;5012580;28;20061;-72
2022/09/22 11:38:47;;;;;;;7.72;4.40;;;16.20;99.90;;;;;;5021692;28;20061;-72
2022/09/22 11:41:20;;;;;;;7.63;3.90;;;16.10;99.90;;;;;;5021395;28;20033;-72
2022/09/22 11:43:55;;;;;;;7.18;3.50;;;16.20;99.90;;;;;;5006244;28;20054;-73
2022/09/22 11:46:35;;;;;;;9.90;4.07;;;16.30;99.90;;;;;;5018624;28;20189;-72
2022/09/22 11:49:25;;;;;;;6.85;4.07;;;16.50;99.90;;;;;;5012207;28;20076;-72
2022/09/22 11:51:54;;;;;;;6.82;4.60;;;16.90;99.90;;;;;;5065102;28;20059;-72
2022/09/22 11:54:45;;;;;;;12.15;4.72;;;17.20;99.90;;;;;;5066702;28;20040;-72
2022/09/22 11:57:15;;;;;;;7.32;4.93;;;17.10;99.90;;;;;;5054984;28;20044;-72
2022/09/22 11:59:50;;;;;;;7.03;4.72;;;17.10;99.90;;;;;;5079359;28;20044;-72
2022/09/22 12:02:57;;;;;;;6.25;3.83;;;17.10;99.90;;;;;;5093190;28;20070;-72
2022/09/22 12:05:35;;;;;;;6.80;3.80;;;17.10;99.90;;;;;;5003666;28;20058;-72
2022/09/22 12:08:14;;;;;;;6.13;3.78;;;17.20;99.90;;;;;;4983226;28;20239;-72
2022/09/22 12:10:45;;;;;;;6.82;3.70;;;17.50;99.90;;;;;;5018991;28;20415;-72
2022/09/22 12:13:15;;;;;;;11.98;4.10;;;17.80;99.90;;;;;;4998160;28;20064;-72
2022/09/22 12:15:45;;;;;;;7.70;3.83;;;17.90;99.90;;;;;;5003237;28;20062;-72
2022/09/22 12:18:16;;;;;;;;;;;18.10;99.90;;;;;;4998672;28;20054;-73
2022/09/22 12:20:48;;;;;;;9.23;5.13;;;18.30;99.90;;;;;;5015629;28;19925;-72
2022/09/22 12:23:32;;;;;;;11.85;5.07;;;18.40;99.90;;;;;;4978819;28;20089;-72
2022/09/22 12:26:03;;;;;;;9.82;4.18;;;18.50;99.90;;;;;;4999753;28;20046;-72
2022/09/22 12:28:31;;;;;;;6.43;3.80;;;18.60;99.90;;;;;;4995037;28;20042;-72
2022/09/22 12:31:05;;;;;;;8.13;3.80;;;18.60;99.90;;;;;;5016146;28;20076;-72
2022/09/22 12:33:34;;;;;;;10.82;4.88;;;18.40;99.90;;;;;;4977597;28;20082;-72
2022/09/22 12:36:01;;;;;;;7.55;4.63;;;18.50;99.90;;;;;;5002962;28;20091;-72
2022/09/22 12:38:29;;;;;;;9.32;5.40;;;18.50;99.90;;;;;;5008158;28;20062;-72
2022/09/22 12:41:01;;;;;;;6.00;4.15;;;18.50;98.70;;;;;;5009296;28;20069;-73
2022/09/22 12:43:28;;;;;;;8.90;5.05;;;18.40;99.50;;;;;;5074040;28;20044;-72
2022/09/22 12:45:56;;;;;;;9.15;5.57;;;18.20;98.60;;;;;;5080602;28;20355;-70
2022/09/22 12:48:34;;;;;;;7.15;5.60;;;18.20;98.90;;;;;;5075045;28;20044;-70
2022/09/22 12:51:29;;;;;;;7.50;4.43;;;18.30;99.30;;;;;;5079558;28;20134;-70
2022/09/22 12:54:22;;;;;;;8.15;5.32;;;18.50;98.30;;;;;;5090842;28;20597;-74
2022/09/22 12:56:58;;;;;;;7.93;5.97;;;18.60;98.20;;;;;;5069268;28;20450;-73
2022/09/22 12:59:36;;;;;;;8.10;5.07;;;18.50;98.10;;;;;;5079424;28;20066;-72
2022/09/22 13:02:17;;;;;;;8.10;5.65;;;18.50;98.10;;;;;;5070786;28;20709;-74
2022/09/22 13:04:54;;;;;;;8.48;4.88;;;18.40;97.70;;;;;;5063481;28;20040;-73
2022/09/22 13:07:32;;;;;;;8.80;5.03;;;18.70;98.60;;;;;;5044716;28;20055;-73
2022/09/22 13:10:20;;;;;;;9.63;5.32;;;18.70;97.90;;;;;;5051031;28;20041;-73
2022/09/22 13:15:49;;;;;;;9.93;5.38;;;18.40;99.40;;;;;;5055643;28;20049;-73
2022/09/22 13:18:38;;;;;;;8.90;4.15;;;18.20;98.10;;;;;;5050874;28;20055;-72
2022/09/22 13:21:12;;;;;;;5.47;3.33;;;18.10;99.30;;;;;;5059326;28;20048;-73
2022/09/22 13:23:50;;;;;;;8.80;3.50;;;18.10;99.50;;;;;;5050851;28;20049;-73
2022/09/22 13:26:31;;;;;;;4.88;3.00;;;18.20;99.60;;;;;;5061128;28;20040;-73
2022/09/22 13:29:20;;;;;;;7.38;3.15;;;18.40;98.90;;;;;;5042873;28;20587;-74
2022/09/22 13:31:49;;;;;;;5.80;3.97;;;18.60;98.80;;;;;;5061143;28;20043;-73
2022/09/22 13:34:28;;;;;;;6.50;3.80;;;18.70;98.10;;;;;;5031848;28;20407;-74
2022/09/22 13:36:56;;;;;;;8.55;3.45;;;18.80;98.20;;;;;;5065320;28;20037;-74